createdAt,value
2019-02-16T00:00:30.474Z,5.67
2019-02-16T00:02:59.466Z,4.50
2019-02-16T00:05:28.254Z,7.12
2019-02-16T00:07:56.888Z,6.10
2019-02-16T00:10:25.660Z,8.23
2019-02-16T00:12:56.598Z,6.12
2019-02-16T00:15:25.919Z,5.08
2019-02-16T00:17:54.282Z,5.70
2019-02-16T00:20:22.601Z,3.92
2019-02-16T00:22:51.450Z,5.35
2019-02-16T00:25:20.134Z,5.95
2019-02-16T00:27:49.026Z,4.83
2019-02-16T00:30:17.339Z,6.35
2019-02-16T00:32:49.290Z,5.10
2019-02-16T00:35:16.274Z,6.95
2019-02-16T00:37:44.043Z,5.87
2019-02-16T00:40:11.310Z,5.15
2019-02-16T00:42:39.327Z,6.15
2019-02-16T00:45:07.870Z,4.65
2019-02-16T00:47:36.047Z,5.92
2019-02-16T00:50:05.113Z,5.58
2019-02-16T00:52:33.188Z,6.45
2019-02-16T00:55:01.744Z,6.22
2019-02-16T00:57:30.708Z,5.65
2019-02-16T00:59:59.285Z,7.17
2019-02-16T01:02:26.573Z,6.87
2019-02-16T01:04:54.964Z,5.33
2019-02-16T01:07:28.625Z,6.53
2019-02-16T01:09:56.442Z,7.30
2019-02-16T01:12:24.600Z,6.10
2019-02-16T01:14:52.627Z,5.28
2019-02-16T01:17:21.670Z,6.25
2019-02-16T01:19:49.904Z,5.08
2019-02-16T01:22:17.076Z,6.47
2019-02-16T01:24:45.411Z,4.62
2019-02-16T01:27:14.553Z,6.53
2019-02-16T01:29:43.442Z,5.70
2019-02-16T01:32:11.288Z,6.03
2019-02-16T01:34:39.152Z,10.05
2019-02-16T01:37:07.738Z,5.20
2019-02-16T01:39:36.682Z,4.92
2019-02-16T01:42:03.838Z,6.22
2019-02-16T01:44:32.282Z,5.90
2019-02-16T01:47:00.456Z,5.10
2019-02-16T01:49:29.172Z,4.83
2019-02-16T01:51:57.774Z,4.97
2019-02-16T01:54:26.131Z,5.25
2019-02-16T01:56:54.684Z,4.87
2019-02-16T01:59:23.756Z,5.37
2019-02-16T02:01:52.305Z,5.12
2019-02-16T02:04:20.694Z,6.00
2019-02-16T02:06:49.416Z,6.72
2019-02-16T02:09:18.159Z,4.80
2019-02-16T02:11:47.187Z,5.50
2019-02-16T02:14:16.836Z,5.28
2019-02-16T02:16:44.466Z,6.28
2019-02-16T02:19:13.411Z,5.45
2019-02-16T02:21:43.115Z,5.03
2019-02-16T02:24:11.133Z,4.60
2019-02-16T02:26:38.538Z,7.72
2019-02-16T02:29:06.767Z,6.58
2019-02-16T02:31:37.447Z,6.60
2019-02-16T02:34:05.793Z,5.58
2019-02-16T02:36:34.273Z,6.17
2019-02-16T02:39:03.830Z,6.47
2019-02-16T02:41:32.109Z,5.10
2019-02-16T02:44:01.027Z,4.90
2019-02-16T02:46:29.210Z,7.25
2019-02-16T02:48:57.901Z,5.22
2019-02-16T02:51:26.574Z,5.45
2019-02-16T02:53:55.029Z,6.55
2019-02-16T02:56:23.351Z,8.50
2019-02-16T02:58:51.837Z,4.58
2019-02-16T03:01:20.219Z,6.22
2019-02-16T03:03:48.770Z,6.35
2019-02-16T03:06:17.477Z,7.45
2019-02-16T03:08:45.544Z,7.28
2019-02-16T03:11:13.645Z,6.87
2019-02-16T03:13:41.850Z,6.58
2019-02-16T03:16:10.258Z,8.83
2019-02-16T03:18:39.204Z,5.65
2019-02-16T03:21:07.701Z,4.33
2019-02-16T03:23:35.982Z,5.28
2019-02-16T03:26:30.208Z,5.28
2019-02-16T03:29:09.068Z,4.75
2019-02-16T03:32:49.188Z,6.08
2019-02-16T03:35:35.995Z,7.03
2019-02-16T03:38:18.395Z,5.83
2019-02-16T03:40:47.862Z,7.47
2019-02-16T03:43:15.582Z,5.70
2019-02-16T03:45:43.328Z,4.97
2019-02-16T03:48:10.646Z,7.95
2019-02-16T03:50:38.038Z,7.65
2019-02-16T03:53:05.011Z,7.72
2019-02-16T03:55:33.244Z,5.58
2019-02-16T03:58:00.666Z,5.25
2019-02-16T04:00:27.734Z,5.30
2019-02-16T04:02:55.261Z,5.03
2019-02-16T04:05:23.410Z,7.90
2019-02-16T04:07:51.292Z,5.53
2019-02-16T04:10:18.515Z,6.37
2019-02-16T04:12:45.956Z,8.15
2019-02-16T04:15:14.260Z,8.75
2019-02-16T04:17:42.227Z,6.60
2019-02-16T04:20:09.517Z,8.55
2019-02-16T04:22:37.481Z,6.67
2019-02-16T04:25:05.310Z,7.83
2019-02-16T04:27:32.977Z,5.62
2019-02-16T04:30:00.410Z,8.25
2019-02-16T04:32:28.082Z,7.85
2019-02-16T04:34:56.074Z,6.62
2019-02-16T04:37:24.034Z,8.35
2019-02-16T04:39:51.794Z,5.28
2019-02-16T04:42:19.358Z,6.62
2019-02-16T04:44:47.172Z,5.20
2019-02-16T04:47:14.855Z,6.72
2019-02-16T04:49:42.271Z,7.17
2019-02-16T04:52:09.387Z,6.22
2019-02-16T04:54:36.668Z,5.50
2019-02-16T04:57:03.752Z,6.85
2019-02-16T04:59:31.148Z,6.30
2019-02-16T05:01:58.354Z,7.55
2019-02-16T05:04:25.891Z,6.10
2019-02-16T05:06:53.161Z,7.50
2019-02-16T05:09:20.166Z,8.20
2019-02-16T05:11:47.577Z,8.10
2019-02-16T05:14:14.778Z,5.97
2019-02-16T05:16:42.113Z,4.60
2019-02-16T05:19:09.193Z,5.03
2019-02-16T05:21:36.630Z,6.25
2019-02-16T05:24:04.086Z,7.62
2019-02-16T05:26:31.764Z,7.00
2019-02-16T05:28:59.181Z,8.55
2019-02-16T05:31:26.277Z,5.55
2019-02-16T05:33:54.530Z,7.37
2019-02-16T05:36:22.401Z,4.90
2019-02-16T05:38:50.364Z,5.42
2019-02-16T05:41:17.631Z,5.90
2019-02-16T05:43:45.695Z,6.75
2019-02-16T05:46:14.991Z,7.85
2019-02-16T05:48:43.496Z,7.05
2019-02-16T05:51:11.956Z,7.65
2019-02-16T05:53:40.474Z,5.37
2019-02-16T05:56:10.331Z,5.95
2019-02-16T05:58:38.262Z,5.33
2019-02-16T06:01:05.639Z,5.33
2019-02-16T06:03:34.097Z,5.83
2019-02-16T06:06:03.362Z,5.45
2019-02-16T06:08:31.442Z,5.95
2019-02-16T06:11:00.218Z,5.53
2019-02-16T06:13:28.767Z,5.90
2019-02-16T06:15:56.942Z,5.25
2019-02-16T06:18:25.552Z,5.70
2019-02-16T06:20:54.134Z,6.55
2019-02-16T06:23:22.339Z,5.30
2019-02-16T06:25:50.904Z,4.95
2019-02-16T06:28:19.485Z,5.50
2019-02-16T06:30:49.215Z,4.45
2019-02-16T06:33:17.256Z,7.50
2019-02-16T06:35:48.398Z,4.17
2019-02-16T06:38:18.698Z,7.35
2019-02-16T06:40:47.715Z,5.58
2019-02-16T06:43:15.351Z,5.62
2019-02-16T06:45:44.270Z,5.78
2019-02-16T06:48:13.571Z,5.45
2019-02-16T06:50:41.290Z,6.42
2019-02-16T06:53:13.243Z,6.45
2019-02-16T06:55:48.046Z,5.80
2019-02-16T06:58:16.154Z,6.10
2019-02-16T07:00:44.782Z,6.00
2019-02-16T07:03:13.463Z,5.30
2019-02-16T07:05:40.823Z,6.15
2019-02-16T07:08:10.082Z,6.25
2019-02-16T07:10:37.514Z,7.22
2019-02-16T07:13:05.982Z,6.95
2019-02-16T07:15:34.505Z,7.53
2019-02-16T07:18:11.970Z,6.10
2019-02-16T07:20:40.287Z,6.25
2019-02-16T07:23:09.198Z,7.60
2019-02-16T07:25:37.903Z,5.67
2019-02-16T07:28:07.202Z,5.70
2019-02-16T07:30:35.259Z,5.90
2019-02-16T07:33:03.619Z,8.90
2019-02-16T07:35:32.198Z,6.47
2019-02-16T07:38:00.597Z,7.55
2019-02-16T07:40:29.386Z,4.70
2019-02-16T07:42:58.102Z,6.92
2019-02-16T07:46:00.984Z,5.53
2019-02-16T07:48:34.770Z,7.00
2019-02-16T07:51:12.325Z,6.65
2019-02-16T07:53:58.224Z,7.62
2019-02-16T07:56:37.797Z,8.18
2019-02-16T07:59:24.250Z,8.08
2019-02-16T08:02:18.075Z,7.15
2019-02-16T08:04:52.704Z,8.40
2019-02-16T08:07:34.170Z,6.28
2019-02-16T08:10:26.738Z,6.58
2019-02-16T08:13:21.020Z,6.17
2019-02-16T08:16:07.000Z,8.28
2019-02-16T08:18:57.313Z,10.70
2019-02-16T08:21:43.204Z,6.05
2019-02-16T08:24:28.974Z,6.50
2019-02-16T08:27:19.208Z,12.95
2019-02-16T08:29:55.894Z,7.03
2019-02-16T08:32:47.370Z,6.72
2019-02-16T08:35:24.362Z,6.55
2019-02-16T08:38:15.158Z,5.15
2019-02-16T08:41:08.412Z,8.15
2019-02-16T08:43:55.089Z,5.75
2019-02-16T08:46:50.787Z,5.50
2019-02-16T08:49:30.579Z,8.03
2019-02-16T08:52:08.854Z,6.33
2019-02-16T08:54:49.197Z,5.67
2019-02-16T08:57:34.573Z,5.67
2019-02-16T09:00:13.713Z,6.08
2019-02-16T09:02:55.728Z,6.05
2019-02-16T09:05:51.397Z,5.45
2019-02-16T09:08:28.749Z,6.62
2019-02-16T09:11:45.327Z,6.90
2019-02-16T09:14:25.931Z,6.22
2019-02-16T09:17:04.295Z,5.55
2019-02-16T09:19:48.639Z,6.33
2019-02-16T09:22:22.646Z,7.47
2019-02-16T09:25:08.702Z,6.70
2019-02-16T09:28:17.617Z,6.20
2019-02-16T09:30:57.706Z,8.05
2019-02-16T09:33:54.360Z,7.87
2019-02-16T09:36:47.798Z,6.78
2019-02-16T09:39:42.481Z,7.10
2019-02-16T09:42:18.319Z,6.78
2019-02-16T09:45:11.818Z,9.13
2019-02-16T09:48:05.667Z,6.93
2019-02-16T09:50:55.993Z,8.00
2019-02-16T09:53:45.630Z,7.65
2019-02-16T09:56:32.411Z,7.00
2019-02-16T09:59:25.839Z,6.90
2019-02-16T10:02:03.566Z,7.55
2019-02-16T10:04:36.862Z,6.78
2019-02-16T10:07:19.826Z,6.70
2019-02-16T10:09:54.060Z,9.00
2019-02-16T10:12:31.868Z,6.67
2019-02-16T10:15:18.646Z,12.10
2019-02-16T10:18:05.533Z,5.50
2019-02-16T10:20:44.355Z,8.47
2019-02-16T10:23:18.777Z,8.15
2019-02-16T10:26:05.302Z,9.00
2019-02-16T10:29:02.648Z,8.80
2019-02-16T10:31:39.994Z,11.90
2019-02-16T10:34:32.954Z,8.33
2019-02-16T10:37:28.879Z,9.80
2019-02-16T10:40:10.734Z,10.67
2019-02-16T10:43:16.594Z,8.30
2019-02-16T10:46:03.833Z,12.50
2019-02-16T10:49:10.339Z,12.00
2019-02-16T10:51:45.254Z,10.00
2019-02-16T10:54:45.329Z,11.63
2019-02-16T10:57:25.349Z,10.30
2019-02-16T11:00:22.859Z,8.60
2019-02-16T11:03:11.543Z,11.47
2019-02-16T11:05:45.482Z,9.80
2019-02-16T11:08:18.417Z,9.53
2019-02-16T11:10:53.523Z,9.83
2019-02-16T11:13:27.706Z,11.30
2019-02-16T11:16:12.112Z,9.10
2019-02-16T11:19:11.961Z,12.20
2019-02-16T11:22:00.673Z,10.53
2019-02-16T11:24:44.277Z,10.37
2019-02-16T11:27:35.978Z,12.63
2019-02-16T11:30:12.884Z,11.97
2019-02-16T11:33:03.933Z,14.57
2019-02-16T11:35:51.490Z,15.43
2019-02-16T11:38:42.811Z,11.00
2019-02-16T11:41:32.190Z,13.07
2019-02-16T11:44:12.361Z,13.17
2019-02-16T11:46:50.217Z,12.80
2019-02-16T11:49:45.262Z,13.00
2019-02-16T11:52:38.921Z,13.70
2019-02-16T11:55:32.725Z,14.27
2019-02-16T11:58:37.666Z,15.10
2019-02-16T12:01:15.446Z,17.13
2019-02-16T12:04:05.584Z,12.00
2019-02-16T12:06:48.482Z,16.87
2019-02-16T12:09:36.273Z,13.07
2019-02-16T12:12:21.652Z,13.40
2019-02-16T12:15:06.958Z,11.13
2019-02-16T12:17:56.769Z,14.07
2019-02-16T12:20:55.265Z,12.40
2019-02-16T12:23:49.349Z,14.27
2019-02-16T12:26:27.689Z,12.57
2019-02-16T12:29:18.080Z,14.13
2019-02-16T12:31:56.310Z,13.67
2019-02-16T12:34:30.942Z,15.80
2019-02-16T12:37:17.419Z,21.90
2019-02-16T12:40:18.444Z,12.87
2019-02-16T12:42:54.024Z,12.30
2019-02-16T12:46:00.501Z,14.70
2019-02-16T12:48:34.750Z,12.67
2019-02-16T12:51:36.359Z,13.23
2019-02-16T12:54:30.219Z,14.63
2019-02-16T12:57:08.562Z,11.80
2019-02-16T12:59:54.786Z,15.73
2019-02-16T13:02:54.548Z,15.27
2019-02-16T13:05:49.627Z,13.40
2019-02-16T13:08:28.438Z,17.83
2019-02-16T13:11:21.741Z,19.80
2019-02-16T13:14:10.461Z,14.47
2019-02-16T13:17:05.990Z,15.70
2019-02-16T13:19:37.914Z,12.40
2019-02-16T13:22:14.610Z,13.43
2019-02-16T13:25:04.843Z,14.23
2019-02-16T13:27:55.435Z,13.17
2019-02-16T13:30:48.830Z,13.70
2019-02-16T13:33:42.389Z,12.70
2019-02-16T13:36:29.425Z,12.90
2019-02-16T13:39:19.482Z,11.93
2019-02-16T13:42:16.217Z,13.40
2019-02-16T13:44:54.697Z,11.60
2019-02-16T13:47:28.104Z,12.13
2019-02-16T13:50:08.098Z,13.60
2019-02-16T13:52:50.621Z,10.77
2019-02-16T13:55:23.411Z,12.37
2019-02-16T13:58:12.270Z,13.23
2019-02-16T14:00:53.972Z,12.13
2019-02-16T14:04:17.881Z,11.60
2019-02-16T14:07:17.184Z,11.50
2019-02-16T14:10:10.064Z,11.97
2019-02-16T14:12:45.731Z,13.20
2019-02-16T14:15:23.945Z,10.03
2019-02-16T14:17:55.475Z,11.90
2019-02-16T14:20:27.882Z,13.93
2019-02-16T14:22:55.230Z,11.17
2019-02-16T14:25:45.613Z,17.10
2019-02-16T14:28:13.061Z,13.20
2019-02-16T14:30:40.431Z,10.80
2019-02-16T14:33:07.774Z,13.43
2019-02-16T14:35:35.021Z,12.47
2019-02-16T14:38:07.232Z,12.43
2019-02-16T14:40:34.426Z,11.60
2019-02-16T14:43:01.743Z,13.37
2019-02-16T14:45:30.819Z,14.00
2019-02-16T14:47:57.855Z,13.80
2019-02-16T14:50:25.041Z,13.53
2019-02-16T14:52:52.710Z,11.20
2019-02-16T14:55:19.705Z,15.47
2019-02-16T14:57:46.763Z,15.10
2019-02-16T15:00:13.957Z,9.10
2019-02-16T15:02:41.201Z,11.70
2019-02-16T15:05:08.518Z,14.97
2019-02-16T15:07:35.677Z,11.30
2019-02-16T15:10:03.063Z,12.43
2019-02-16T15:12:30.425Z,13.00
2019-02-16T15:14:57.598Z,12.87
2019-02-16T15:17:24.849Z,14.20
2019-02-16T15:19:52.034Z,15.17
2019-02-16T15:22:19.462Z,11.60
2019-02-16T15:24:46.702Z,14.03
2019-02-16T15:27:13.958Z,12.83
2019-02-16T15:29:42.134Z,18.03
2019-02-16T15:32:09.606Z,15.07
2019-02-16T15:34:38.691Z,15.80
2019-02-16T15:37:06.075Z,15.63
2019-02-16T15:39:34.367Z,15.57
2019-02-16T15:42:11.717Z,17.80
2019-02-16T15:44:38.799Z,16.90
2019-02-16T15:47:05.955Z,18.67
2019-02-16T15:49:33.250Z,15.93
2019-02-16T15:52:01.878Z,17.43
2019-02-16T15:54:29.377Z,15.57
2019-02-16T15:56:58.874Z,18.50
2019-02-16T15:59:34.861Z,17.97
2019-02-16T16:01:55.436Z,20.00
2019-02-16T16:04:22.715Z,16.80
2019-02-16T16:06:49.748Z,15.23
2019-02-16T16:09:54.950Z,19.63
2019-02-16T16:12:50.873Z,17.10
2019-02-16T16:15:41.580Z,16.77
2019-02-16T16:18:17.339Z,17.17
2019-02-16T16:20:56.693Z,19.03
2019-02-16T16:23:40.415Z,16.13
2019-02-16T16:26:25.811Z,16.87
2019-02-16T16:29:05.082Z,18.90
2019-02-16T16:31:46.120Z,17.03
2019-02-16T16:34:21.037Z,19.63
2019-02-16T16:37:04.083Z,14.10
2019-02-16T16:40:03.183Z,18.33
2019-02-16T16:42:44.236Z,31.77
2019-02-16T16:45:21.940Z,26.27
2019-02-16T16:48:16.907Z,43.57
2019-02-16T16:50:52.178Z,30.77
2019-02-16T16:53:35.765Z,28.97
2019-02-16T16:56:32.450Z,23.23
2019-02-16T16:59:17.942Z,17.77
2019-02-16T17:02:13.298Z,19.83
2019-02-16T17:05:06.097Z,20.23
2019-02-16T17:07:52.898Z,20.37
2019-02-16T17:10:28.063Z,19.27
2019-02-16T17:13:10.881Z,21.10
2019-02-16T17:15:57.659Z,21.07
2019-02-16T17:18:45.414Z,21.50
2019-02-16T17:21:38.433Z,22.57
2019-02-16T17:24:16.229Z,18.50
2019-02-16T17:27:01.423Z,22.00
2019-02-16T17:29:43.545Z,21.80
2019-02-16T17:32:31.806Z,22.77
2019-02-16T17:35:33.610Z,18.77
2019-02-16T17:38:21.142Z,24.18
2019-02-16T17:40:54.979Z,23.10
2019-02-16T17:43:39.949Z,22.73
2019-02-16T17:46:32.874Z,22.67
2019-02-16T17:49:10.488Z,21.57
2019-02-16T17:52:09.087Z,24.85
2019-02-16T17:54:55.672Z,25.43
2019-02-16T17:57:48.377Z,25.48
2019-02-16T18:00:41.347Z,25.57
2019-02-16T18:03:30.892Z,24.18
2019-02-16T18:06:22.754Z,28.60
2019-02-16T18:09:28.372Z,28.67
2019-02-16T18:12:13.555Z,31.20
2019-02-16T18:15:01.095Z,28.60
2019-02-16T18:17:52.805Z,25.17
2019-02-16T18:20:33.534Z,26.10
2019-02-16T18:23:09.148Z,25.60
2019-02-16T18:26:00.102Z,30.10
2019-02-16T18:28:43.412Z,28.70
2019-02-16T18:31:30.318Z,28.38
2019-02-16T18:34:16.644Z,27.05
2019-02-16T18:36:52.583Z,26.00
2019-02-16T18:39:32.952Z,30.12
2019-02-16T18:42:21.209Z,30.60
2019-02-16T18:45:08.143Z,27.42
2019-02-16T18:48:03.037Z,26.77
2019-02-16T18:50:49.037Z,23.95
2019-02-16T18:53:46.357Z,24.23
2019-02-16T18:56:34.728Z,22.37
2019-02-16T18:59:34.423Z,20.90
2019-02-16T19:02:21.575Z,23.87
2019-02-16T19:04:57.461Z,21.00
2019-02-16T19:07:43.043Z,23.10
2019-02-16T19:10:24.055Z,22.85
2019-02-16T19:13:18.416Z,25.75
2019-02-16T19:16:05.296Z,22.45
2019-02-16T19:18:43.557Z,27.82
2019-02-16T19:21:26.877Z,28.75
2019-02-16T19:24:13.111Z,24.18
2019-02-16T19:27:01.138Z,22.35
2019-02-16T19:29:55.566Z,24.65
2019-02-16T19:32:42.643Z,26.52
2019-02-16T19:35:28.746Z,25.48
2019-02-16T19:38:05.081Z,23.98
2019-02-16T19:40:40.995Z,29.37
2019-02-16T19:43:17.339Z,26.40
2019-02-16T19:45:55.005Z,25.97
2019-02-16T19:48:55.497Z,24.63
2019-02-16T19:51:47.323Z,28.35
2019-02-16T19:54:35.345Z,22.35
2019-02-16T19:57:27.278Z,24.18
2019-02-16T20:00:30.146Z,22.42
2019-02-16T20:03:27.535Z,22.93
2019-02-16T20:06:15.747Z,23.52
2019-02-16T20:08:52.416Z,23.05
2019-02-16T20:11:40.551Z,24.20
2019-02-16T20:14:31.780Z,22.35
2019-02-16T20:17:15.086Z,22.93
2019-02-16T20:19:54.014Z,23.65
2019-02-16T20:22:30.206Z,22.20
2019-02-16T20:25:21.367Z,23.75
2019-02-16T20:28:07.911Z,23.92
2019-02-16T20:30:51.318Z,27.45
2019-02-16T20:33:40.210Z,25.95
2019-02-16T20:36:31.418Z,25.23
2019-02-16T20:39:18.350Z,22.58
2019-02-16T20:42:01.024Z,26.35
2019-02-16T20:44:37.010Z,27.42
2019-02-16T20:47:19.742Z,23.60
2019-02-16T20:50:13.328Z,26.02
2019-02-16T20:52:56.987Z,23.25
2019-02-16T20:55:48.079Z,23.80
2019-02-16T20:58:41.786Z,25.32
2019-02-16T21:01:27.238Z,20.32
2019-02-16T21:04:14.365Z,19.75
2019-02-16T21:07:10.914Z,24.07
2019-02-16T21:09:57.933Z,20.35
2019-02-16T21:12:49.306Z,23.32
2019-02-16T21:15:46.676Z,21.60
2019-02-16T21:18:43.724Z,22.05
2019-02-16T21:21:33.670Z,22.05
2019-02-16T21:24:25.410Z,22.45
2019-02-16T21:27:00.944Z,20.35
2019-02-16T21:29:46.360Z,21.40
2019-02-16T21:32:34.482Z,24.52
2019-02-16T21:35:28.559Z,21.12
2019-02-16T21:38:06.546Z,25.10
2019-02-16T21:41:12.708Z,25.60
2019-02-16T21:43:59.138Z,25.17
2019-02-16T21:46:36.607Z,22.10
2019-02-16T21:49:24.743Z,24.72
2019-02-16T21:52:16.035Z,25.57
2019-02-16T21:55:02.310Z,23.47
2019-02-16T21:57:50.102Z,24.70
2019-02-16T22:00:34.986Z,24.20
2019-02-16T22:03:41.063Z,23.77
2019-02-16T22:06:30.052Z,21.97
2019-02-16T22:09:26.899Z,27.32
2019-02-16T22:12:21.921Z,23.77
2019-02-16T22:14:50.326Z,23.38
2019-02-16T22:17:18.522Z,24.18
2019-02-16T22:19:47.472Z,27.02
2019-02-16T22:22:15.651Z,24.27
2019-02-16T22:24:43.814Z,22.65
2019-02-16T22:27:12.311Z,25.32
2019-02-16T22:29:40.491Z,27.70
2019-02-16T22:32:21.807Z,23.77
2019-02-16T22:34:50.445Z,24.85
2019-02-16T22:37:18.777Z,23.67
2019-02-16T22:39:47.102Z,25.80
2019-02-16T22:42:15.214Z,26.62
2019-02-16T22:44:43.461Z,26.93
2019-02-16T22:47:11.530Z,24.15
2019-02-16T22:49:39.895Z,23.87
2019-02-16T22:52:08.336Z,23.98
2019-02-16T22:54:38.431Z,30.15
2019-02-16T22:57:06.558Z,29.57
2019-02-16T22:59:34.658Z,27.90
2019-02-16T23:02:03.293Z,31.97
2019-02-16T23:04:31.590Z,34.10
2019-02-16T23:06:59.799Z,36.17
2019-02-16T23:09:28.681Z,31.65
2019-02-16T23:11:56.934Z,31.60
2019-02-16T23:14:25.139Z,32.85
2019-02-16T23:16:53.513Z,29.57
2019-02-16T23:19:22.002Z,27.70
2019-02-16T23:21:50.158Z,27.02
2019-02-16T23:24:18.464Z,32.73
2019-02-16T23:26:46.735Z,34.35
2019-02-16T23:29:15.127Z,26.70
2019-02-16T23:31:43.524Z,31.10
2019-02-16T23:34:11.947Z,26.73
2019-02-16T23:36:40.134Z,25.90
2019-02-16T23:39:10.456Z,25.92
2019-02-16T23:41:38.593Z,26.93
2019-02-16T23:44:06.675Z,28.07
2019-02-16T23:46:34.827Z,28.42
2019-02-16T23:49:03.241Z,25.62
2019-02-16T23:51:31.823Z,26.87
2019-02-16T23:53:59.983Z,23.32
2019-02-16T23:56:29.162Z,24.60
2019-02-16T23:58:56.462Z,23.65
